sensor_id;sensor_type;location;lat;lon;timestamp;P1;durP1;ratioP1;P2;durP2;ratioP2
40675;SDS011;26359;48.750;9.314;2022-11-14T00:00:41;21.08;;;16.70;;
40675;SDS011;26359;48.750;9.314;2022-11-14T00:03:08;19.45;;;14.73;;
40675;SDS011;26359;48.750;9.314;2022-11-14T00:05:39;19.83;;;14.90;;
40675;SDS011;26359;48.750;9.314;2022-11-14T00:08:06;19.27;;;14.50;;
40675;SDS011;26359;48.750;9.314;2022-11-14T00:10:47;20.33;;;15.00;;
40675;SDS011;26359;48.750;9.314;2022-11-14T00:13:15;21.88;;;15.27;;
40675;SDS011;26359;48.750;9.314;2022-11-14T00:15:43;20.75;;;18.58;;
40675;SDS011;26359;48.750;9.314;2022-11-14T00:18:09;20.38;;;16.13;;
40675;SDS011;26359;48.750;9.314;2022-11-14T00:20:35;19.88;;;15.90;;
40675;SDS011;26359;48.750;9.314;2022-11-14T00:23:01;19.98;;;15.73;;
40675;SDS011;26359;48.750;9.314;2022-11-14T00:25:26;21.52;;;17.15;;
40675;SDS011;26359;48.750;9.314;2022-11-14T00:27:52;20.52;;;15.95;;
40675;SDS011;26359;48.750;9.314;2022-11-14T00:30:21;23.90;;;16.13;;
40675;SDS011;26359;48.750;9.314;2022-11-14T00:32:47;21.08;;;16.42;;
40675;SDS011;26359;48.750;9.314;2022-11-14T00:35:12;19.55;;;16.13;;
40675;SDS011;26359;48.750;9.314;2022-11-14T00:37:38;22.80;;;16.45;;
40675;SDS011;26359;48.750;9.314;2022-11-14T00:40:03;21.13;;;15.25;;
40675;SDS011;26359;48.750;9.314;2022-11-14T00:42:29;19.27;;;14.98;;
40675;SDS011;26359;48.750;9.314;2022-11-14T00:44:55;19.40;;;15.90;;
40675;SDS011;26359;48.750;9.314;2022-11-14T00:47:20;19.63;;;15.40;;
40675;SDS011;26359;48.750;9.314;2022-11-14T00:49:46;20.77;;;14.90;;
40675;SDS011;26359;48.750;9.314;2022-11-14T00:52:11;20.95;;;15.30;;
40675;SDS011;26359;48.750;9.314;2022-11-14T00:54:37;22.40;;;17.25;;
40675;SDS011;26359;48.750;9.314;2022-11-14T00:57:03;23.10;;;17.10;;
40675;SDS011;26359;48.750;9.314;2022-11-14T00:59:28;20.58;;;16.58;;
40675;SDS011;26359;48.750;9.314;2022-11-14T01:01:54;21.70;;;17.45;;
40675;SDS011;26359;48.750;9.314;2022-11-14T01:04:19;20.48;;;16.25;;
40675;SDS011;26359;48.750;9.314;2022-11-14T01:06:45;22.13;;;16.58;;
40675;SDS011;26359;48.750;9.314;2022-11-14T01:09:10;22.27;;;17.27;;
40675;SDS011;26359;48.750;9.314;2022-11-14T01:11:36;20.70;;;15.80;;
40675;SDS011;26359;48.750;9.314;2022-11-14T01:14:04;19.83;;;16.27;;
40675;SDS011;26359;48.750;9.314;2022-11-14T01:16:30;21.40;;;16.40;;
40675;SDS011;26359;48.750;9.314;2022-11-14T01:18:56;21.67;;;16.50;;
40675;SDS011;26359;48.750;9.314;2022-11-14T01:21:22;20.10;;;15.13;;
40675;SDS011;26359;48.750;9.314;2022-11-14T01:23:47;21.02;;;16.45;;
40675;SDS011;26359;48.750;9.314;2022-11-14T01:26:13;24.05;;;16.67;;
40675;SDS011;26359;48.750;9.314;2022-11-14T01:28:39;20.55;;;15.35;;
40675;SDS011;26359;48.750;9.314;2022-11-14T01:31:14;20.88;;;15.05;;
40675;SDS011;26359;48.750;9.314;2022-11-14T01:33:43;20.13;;;15.88;;
40675;SDS011;26359;48.750;9.314;2022-11-14T01:36:12;19.40;;;15.48;;
40675;SDS011;26359;48.750;9.314;2022-11-14T01:38:37;21.77;;;15.40;;
40675;SDS011;26359;48.750;9.314;2022-11-14T01:41:03;19.55;;;15.43;;
40675;SDS011;26359;48.750;9.314;2022-11-14T01:43:30;20.85;;;15.25;;
40675;SDS011;26359;48.750;9.314;2022-11-14T01:48:41;20.13;;;15.82;;
40675;SDS011;26359;48.750;9.314;2022-11-14T01:51:45;19.23;;;15.30;;
40675;SDS011;26359;48.750;9.314;2022-11-14T01:54:06;18.15;;;14.38;;
40675;SDS011;26359;48.750;9.314;2022-11-14T01:56:39;22.80;;;14.73;;
40675;SDS011;26359;48.750;9.314;2022-11-14T01:59:11;19.10;;;15.45;;
40675;SDS011;26359;48.750;9.314;2022-11-14T02:01:45;20.17;;;14.82;;
40675;SDS011;26359;48.750;9.314;2022-11-14T02:04:13;20.42;;;14.65;;
40675;SDS011;26359;48.750;9.314;2022-11-14T02:06:44;22.40;;;15.32;;
40675;SDS011;26359;48.750;9.314;2022-11-14T02:09:11;17.90;;;14.75;;
40675;SDS011;26359;48.750;9.314;2022-11-14T02:11:38;20.05;;;14.82;;
40675;SDS011;26359;48.750;9.314;2022-11-14T02:14:07;19.30;;;14.65;;
40675;SDS011;26359;48.750;9.314;2022-11-14T02:16:33;21.85;;;15.20;;
40675;SDS011;26359;48.750;9.314;2022-11-14T02:18:59;21.13;;;15.98;;
40675;SDS011;26359;48.750;9.314;2022-11-14T02:21:24;20.75;;;15.32;;
40675;SDS011;26359;48.750;9.314;2022-11-14T02:23:50;20.98;;;14.82;;
40675;SDS011;26359;48.750;9.314;2022-11-14T02:26:19;17.02;;;14.10;;
40675;SDS011;26359;48.750;9.314;2022-11-14T02:28:46;20.33;;;16.27;;
40675;SDS011;26359;48.750;9.314;2022-11-14T02:31:14;20.55;;;15.50;;
40675;SDS011;26359;48.750;9.314;2022-11-14T02:33:40;18.42;;;15.13;;
40675;SDS011;26359;48.750;9.314;2022-11-14T02:36:06;22.83;;;16.77;;
40675;SDS011;26359;48.750;9.314;2022-11-14T02:38:32;20.52;;;16.83;;
40675;SDS011;26359;48.750;9.314;2022-11-14T02:41:00;18.98;;;15.02;;
40675;SDS011;26359;48.750;9.314;2022-11-14T02:43:26;49.28;;;18.20;;
40675;SDS011;26359;48.750;9.314;2022-11-14T02:45:52;223.95;;;20.55;;
40675;SDS011;26359;48.750;9.314;2022-11-14T02:48:17;24.92;;;17.33;;
40675;SDS011;26359;48.750;9.314;2022-11-14T02:50:43;148.73;;;18.92;;
40675;SDS011;26359;48.750;9.314;2022-11-14T02:53:09;23.90;;;16.90;;
40675;SDS011;26359;48.750;9.314;2022-11-14T02:55:35;20.70;;;16.27;;
40675;SDS011;26359;48.750;9.314;2022-11-14T02:58:00;22.90;;;16.50;;
40675;SDS011;26359;48.750;9.314;2022-11-14T03:00:26;27.45;;;15.40;;
40675;SDS011;26359;48.750;9.314;2022-11-14T03:02:52;21.65;;;15.73;;
40675;SDS011;26359;48.750;9.314;2022-11-14T03:05:18;22.25;;;15.38;;
40675;SDS011;26359;48.750;9.314;2022-11-14T03:07:44;29.55;;;15.55;;
40675;SDS011;26359;48.750;9.314;2022-11-14T03:10:09;80.10;;;15.77;;
40675;SDS011;26359;48.750;9.314;2022-11-14T03:12:35;20.45;;;15.45;;
40675;SDS011;26359;48.750;9.314;2022-11-14T03:15:01;44.42;;;15.40;;
40675;SDS011;26359;48.750;9.314;2022-11-14T03:17:31;37.08;;;15.18;;
40675;SDS011;26359;48.750;9.314;2022-11-14T03:19:58;19.88;;;14.80;;
40675;SDS011;26359;48.750;9.314;2022-11-14T03:22:24;20.92;;;14.00;;
40675;SDS011;26359;48.750;9.314;2022-11-14T03:24:49;19.40;;;14.05;;
40675;SDS011;26359;48.750;9.314;2022-11-14T03:27:15;32.63;;;14.68;;
40675;SDS011;26359;48.750;9.314;2022-11-14T03:29:40;26.10;;;15.18;;
40675;SDS011;26359;48.750;9.314;2022-11-14T03:32:06;26.40;;;14.77;;
40675;SDS011;26359;48.750;9.314;2022-11-14T03:34:31;19.75;;;14.52;;
40675;SDS011;26359;48.750;9.314;2022-11-14T03:36:57;21.60;;;14.07;;
40675;SDS011;26359;48.750;9.314;2022-11-14T03:39:24;54.17;;;15.32;;
40675;SDS011;26359;48.750;9.314;2022-11-14T03:41:50;46.15;;;15.02;;
40675;SDS011;26359;48.750;9.314;2022-11-14T03:44:16;53.28;;;15.77;;
40675;SDS011;26359;48.750;9.314;2022-11-14T03:46:41;43.35;;;18.67;;
40675;SDS011;26359;48.750;9.314;2022-11-14T03:49:07;180.90;;;19.73;;
40675;SDS011;26359;48.750;9.314;2022-11-14T03:51:32;224.68;;;21.13;;
40675;SDS011;26359;48.750;9.314;2022-11-14T03:53:58;185.52;;;19.77;;
40675;SDS011;26359;48.750;9.314;2022-11-14T03:56:24;44.53;;;16.23;;
40675;SDS011;26359;48.750;9.314;2022-11-14T03:58:49;22.58;;;14.48;;
40675;SDS011;26359;48.750;9.314;2022-11-14T04:01:15;20.08;;;14.65;;
40675;SDS011;26359;48.750;9.314;2022-11-14T04:03:40;31.05;;;15.60;;
40675;SDS011;26359;48.750;9.314;2022-11-14T04:06:06;21.40;;;13.75;;
40675;SDS011;26359;48.750;9.314;2022-11-14T04:08:32;143.77;;;15.98;;
40675;SDS011;26359;48.750;9.314;2022-11-14T04:10:57;31.10;;;15.52;;
40675;SDS011;26359;48.750;9.314;2022-11-14T04:13:23;115.15;;;17.02;;
40675;SDS011;26359;48.750;9.314;2022-11-14T04:15:55;201.38;;;19.02;;
40675;SDS011;26359;48.750;9.314;2022-11-14T04:18:22;97.00;;;17.70;;
40675;SDS011;26359;48.750;9.314;2022-11-14T04:20:50;39.38;;;15.68;;
40675;SDS011;26359;48.750;9.314;2022-11-14T04:23:16;57.47;;;15.50;;
40675;SDS011;26359;48.750;9.314;2022-11-14T04:25:42;62.40;;;14.23;;
40675;SDS011;26359;48.750;9.314;2022-11-14T04:28:09;18.80;;;14.48;;
40675;SDS011;26359;48.750;9.314;2022-11-14T04:30:35;17.23;;;13.65;;
40675;SDS011;26359;48.750;9.314;2022-11-14T04:33:01;17.05;;;13.82;;
40675;SDS011;26359;48.750;9.314;2022-11-14T04:35:26;16.42;;;13.13;;
40675;SDS011;26359;48.750;9.314;2022-11-14T04:37:52;20.05;;;12.75;;
40675;SDS011;26359;48.750;9.314;2022-11-14T04:40:17;17.35;;;13.02;;
40675;SDS011;26359;48.750;9.314;2022-11-14T04:42:43;45.65;;;13.48;;
40675;SDS011;26359;48.750;9.314;2022-11-14T04:45:08;42.50;;;13.75;;
40675;SDS011;26359;48.750;9.314;2022-11-14T04:47:34;48.92;;;15.23;;
40675;SDS011;26359;48.750;9.314;2022-11-14T04:50:00;83.07;;;14.70;;
40675;SDS011;26359;48.750;9.314;2022-11-14T04:52:26;279.38;;;18.95;;
40675;SDS011;26359;48.750;9.314;2022-11-14T04:54:51;23.42;;;14.15;;
40675;SDS011;26359;48.750;9.314;2022-11-14T04:57:17;31.02;;;14.77;;
40675;SDS011;26359;48.750;9.314;2022-11-14T04:59:42;29.38;;;14.45;;
40675;SDS011;26359;48.750;9.314;2022-11-14T05:02:08;18.77;;;13.65;;
40675;SDS011;26359;48.750;9.314;2022-11-14T05:04:33;28.73;;;13.10;;
40675;SDS011;26359;48.750;9.314;2022-11-14T05:06:59;24.30;;;12.50;;
40675;SDS011;26359;48.750;9.314;2022-11-14T05:09:25;17.70;;;12.38;;
40675;SDS011;26359;48.750;9.314;2022-11-14T05:11:50;20.90;;;13.50;;
40675;SDS011;26359;48.750;9.314;2022-11-14T05:14:16;31.83;;;13.77;;
40675;SDS011;26359;48.750;9.314;2022-11-14T05:16:41;22.05;;;12.95;;
40675;SDS011;26359;48.750;9.314;2022-11-14T05:19:07;36.67;;;12.90;;
40675;SDS011;26359;48.750;9.314;2022-11-14T05:21:32;19.73;;;13.80;;
40675;SDS011;26359;48.750;9.314;2022-11-14T05:23:58;17.08;;;12.18;;
40675;SDS011;26359;48.750;9.314;2022-11-14T05:26:24;27.05;;;12.77;;
40675;SDS011;26359;48.750;9.314;2022-11-14T05:28:49;28.45;;;13.32;;
40675;SDS011;26359;48.750;9.314;2022-11-14T05:31:15;18.83;;;12.55;;
40675;SDS011;26359;48.750;9.314;2022-11-14T05:33:43;21.65;;;12.02;;
40675;SDS011;26359;48.750;9.314;2022-11-14T05:36:11;23.02;;;12.00;;
40675;SDS011;26359;48.750;9.314;2022-11-14T05:38:39;18.35;;;12.43;;
40675;SDS011;26359;48.750;9.314;2022-11-14T05:41:05;14.68;;;12.18;;
40675;SDS011;26359;48.750;9.314;2022-11-14T05:43:34;14.82;;;12.35;;
40675;SDS011;26359;48.750;9.314;2022-11-14T05:46:01;20.30;;;13.18;;
40675;SDS011;26359;48.750;9.314;2022-11-14T05:48:29;15.75;;;12.35;;
40675;SDS011;26359;48.750;9.314;2022-11-14T05:50:56;14.95;;;12.93;;
40675;SDS011;26359;48.750;9.314;2022-11-14T05:53:22;16.88;;;13.63;;
40675;SDS011;26359;48.750;9.314;2022-11-14T05:55:48;19.20;;;14.68;;
40675;SDS011;26359;48.750;9.314;2022-11-14T05:58:14;16.40;;;14.68;;
40675;SDS011;26359;48.750;9.314;2022-11-14T06:00:39;17.35;;;14.27;;
40675;SDS011;26359;48.750;9.314;2022-11-14T06:03:05;14.88;;;13.25;;
40675;SDS011;26359;48.750;9.314;2022-11-14T06:05:31;15.93;;;13.48;;
40675;SDS011;26359;48.750;9.314;2022-11-14T06:07:59;15.27;;;12.63;;
40675;SDS011;26359;48.750;9.314;2022-11-14T06:10:25;11.90;;;10.43;;
40675;SDS011;26359;48.750;9.314;2022-11-14T06:12:51;14.50;;;11.93;;
40675;SDS011;26359;48.750;9.314;2022-11-14T06:15:16;12.70;;;11.38;;
40675;SDS011;26359;48.750;9.314;2022-11-14T06:17:42;12.57;;;11.20;;
40675;SDS011;26359;48.750;9.314;2022-11-14T06:20:08;12.55;;;10.98;;
40675;SDS011;26359;48.750;9.314;2022-11-14T06:22:34;11.77;;;10.23;;
40675;SDS011;26359;48.750;9.314;2022-11-14T06:25:00;12.75;;;11.38;;
40675;SDS011;26359;48.750;9.314;2022-11-14T06:27:26;14.57;;;12.13;;
40675;SDS011;26359;48.750;9.314;2022-11-14T06:29:51;13.05;;;11.45;;
40675;SDS011;26359;48.750;9.314;2022-11-14T06:32:17;13.50;;;11.60;;
40675;SDS011;26359;48.750;9.314;2022-11-14T06:34:42;12.77;;;11.23;;
40675;SDS011;26359;48.750;9.314;2022-11-14T06:37:08;13.40;;;11.18;;
40675;SDS011;26359;48.750;9.314;2022-11-14T06:39:34;14.13;;;11.88;;
40675;SDS011;26359;48.750;9.314;2022-11-14T06:41:59;13.80;;;12.02;;
40675;SDS011;26359;48.750;9.314;2022-11-14T06:44:25;14.18;;;12.00;;
40675;SDS011;26359;48.750;9.314;2022-11-14T06:46:50;15.48;;;12.98;;
40675;SDS011;26359;48.750;9.314;2022-11-14T06:49:16;14.52;;;11.98;;
40675;SDS011;26359;48.750;9.314;2022-11-14T06:51:41;14.88;;;12.38;;
40675;SDS011;26359;48.750;9.314;2022-11-14T06:54:09;14.02;;;12.05;;
40675;SDS011;26359;48.750;9.314;2022-11-14T06:56:35;14.55;;;11.70;;
40675;SDS011;26359;48.750;9.314;2022-11-14T06:59:01;14.65;;;11.88;;
40675;SDS011;26359;48.750;9.314;2022-11-14T07:01:27;14.07;;;12.13;;
40675;SDS011;26359;48.750;9.314;2022-11-14T07:03:53;15.63;;;12.70;;
40675;SDS011;26359;48.750;9.314;2022-11-14T07:06:21;14.20;;;12.30;;
40675;SDS011;26359;48.750;9.314;2022-11-14T07:08:49;16.27;;;13.25;;
40675;SDS011;26359;48.750;9.314;2022-11-14T07:11:16;14.23;;;12.50;;
40675;SDS011;26359;48.750;9.314;2022-11-14T07:14:05;14.98;;;12.75;;
40675;SDS011;26359;48.750;9.314;2022-11-14T07:16:31;16.58;;;13.73;;
40675;SDS011;26359;48.750;9.314;2022-11-14T07:19:01;16.92;;;13.18;;
40675;SDS011;26359;48.750;9.314;2022-11-14T07:21:29;14.18;;;12.48;;
40675;SDS011;26359;48.750;9.314;2022-11-14T07:23:55;14.85;;;12.55;;
40675;SDS011;26359;48.750;9.314;2022-11-14T07:26:22;14.50;;;12.07;;
40675;SDS011;26359;48.750;9.314;2022-11-14T07:28:48;14.82;;;13.23;;
40675;SDS011;26359;48.750;9.314;2022-11-14T07:31:14;15.82;;;13.23;;
40675;SDS011;26359;48.750;9.314;2022-11-14T07:33:41;14.00;;;12.07;;
40675;SDS011;26359;48.750;9.314;2022-11-14T07:36:08;15.95;;;13.45;;
40675;SDS011;26359;48.750;9.314;2022-11-14T07:38:35;14.13;;;12.35;;
40675;SDS011;26359;48.750;9.314;2022-11-14T07:41:03;16.77;;;14.13;;
40675;SDS011;26359;48.750;9.314;2022-11-14T07:43:30;17.40;;;14.25;;
40675;SDS011;26359;48.750;9.314;2022-11-14T07:45:59;19.17;;;13.80;;
40675;SDS011;26359;48.750;9.314;2022-11-14T07:48:26;17.48;;;13.35;;
40675;SDS011;26359;48.750;9.314;2022-11-14T07:50:56;16.42;;;13.23;;
40675;SDS011;26359;48.750;9.314;2022-11-14T07:53:26;17.38;;;13.70;;
40675;SDS011;26359;48.750;9.314;2022-11-14T07:55:52;17.30;;;13.27;;
40675;SDS011;26359;48.750;9.314;2022-11-14T07:58:19;20.70;;;13.65;;
40675;SDS011;26359;48.750;9.314;2022-11-14T08:00:44;18.90;;;13.13;;
40675;SDS011;26359;48.750;9.314;2022-11-14T08:03:10;17.17;;;13.75;;
40675;SDS011;26359;48.750;9.314;2022-11-14T08:05:36;18.67;;;12.50;;
40675;SDS011;26359;48.750;9.314;2022-11-14T08:08:02;17.30;;;13.65;;
40675;SDS011;26359;48.750;9.314;2022-11-14T08:10:28;21.50;;;15.65;;
40675;SDS011;26359;48.750;9.314;2022-11-14T08:13:00;21.33;;;15.52;;
40675;SDS011;26359;48.750;9.314;2022-11-14T08:15:28;25.13;;;16.65;;
40675;SDS011;26359;48.750;9.314;2022-11-14T08:17:57;26.40;;;17.55;;
40675;SDS011;26359;48.750;9.314;2022-11-14T08:20:24;23.95;;;17.38;;
40675;SDS011;26359;48.750;9.314;2022-11-14T08:22:51;22.27;;;16.67;;
40675;SDS011;26359;48.750;9.314;2022-11-14T08:25:17;24.60;;;16.88;;
40675;SDS011;26359;48.750;9.314;2022-11-14T08:27:42;23.50;;;17.10;;
40675;SDS011;26359;48.750;9.314;2022-11-14T08:30:08;22.30;;;15.48;;
40675;SDS011;26359;48.750;9.314;2022-11-14T08:32:34;24.20;;;16.75;;
40675;SDS011;26359;48.750;9.314;2022-11-14T08:34:59;27.42;;;17.92;;
40675;SDS011;26359;48.750;9.314;2022-11-14T08:37:25;23.88;;;16.30;;
40675;SDS011;26359;48.750;9.314;2022-11-14T08:39:50;22.45;;;16.02;;
40675;SDS011;26359;48.750;9.314;2022-11-14T08:42:16;19.88;;;15.07;;
40675;SDS011;26359;48.750;9.314;2022-11-14T08:44:42;22.35;;;13.93;;
40675;SDS011;26359;48.750;9.314;2022-11-14T08:47:07;18.27;;;13.70;;
40675;SDS011;26359;48.750;9.314;2022-11-14T08:49:33;16.52;;;12.95;;
40675;SDS011;26359;48.750;9.314;2022-11-14T08:51:58;18.05;;;13.93;;
40675;SDS011;26359;48.750;9.314;2022-11-14T08:54:24;19.08;;;14.75;;
40675;SDS011;26359;48.750;9.314;2022-11-14T08:56:49;18.17;;;13.32;;
40675;SDS011;26359;48.750;9.314;2022-11-14T08:59:15;16.92;;;12.63;;
40675;SDS011;26359;48.750;9.314;2022-11-14T09:01:41;15.55;;;12.00;;
40675;SDS011;26359;48.750;9.314;2022-11-14T09:04:06;15.68;;;11.32;;
40675;SDS011;26359;48.750;9.314;2022-11-14T09:06:33;14.20;;;11.30;;
40675;SDS011;26359;48.750;9.314;2022-11-14T09:08:58;14.23;;;11.30;;
40675;SDS011;26359;48.750;9.314;2022-11-14T09:11:24;14.98;;;10.80;;
40675;SDS011;26359;48.750;9.314;2022-11-14T09:13:49;13.15;;;10.48;;
40675;SDS011;26359;48.750;9.314;2022-11-14T09:16:15;15.23;;;10.82;;
40675;SDS011;26359;48.750;9.314;2022-11-14T09:18:41;13.93;;;10.80;;
40675;SDS011;26359;48.750;9.314;2022-11-14T09:21:07;12.88;;;10.38;;
40675;SDS011;26359;48.750;9.314;2022-11-14T09:23:33;16.48;;;11.10;;
40675;SDS011;26359;48.750;9.314;2022-11-14T09:26:05;14.35;;;10.77;;
40675;SDS011;26359;48.750;9.314;2022-11-14T09:28:32;13.07;;;10.55;;
40675;SDS011;26359;48.750;9.314;2022-11-14T09:31:08;12.40;;;10.32;;
40675;SDS011;26359;48.750;9.314;2022-11-14T09:33:35;12.77;;;9.10;;
40675;SDS011;26359;48.750;9.314;2022-11-14T09:36:01;15.30;;;13.88;;
40675;SDS011;26359;48.750;9.314;2022-11-14T09:38:32;12.13;;;10.48;;
40675;SDS011;26359;48.750;9.314;2022-11-14T09:46:20;11.57;;;9.55;;
40675;SDS011;26359;48.750;9.314;2022-11-14T09:48:48;12.57;;;10.52;;
40675;SDS011;26359;48.750;9.314;2022-11-14T09:51:19;12.35;;;9.25;;
40675;SDS011;26359;48.750;9.314;2022-11-14T09:56:30;7.30;;;6.45;;
40675;SDS011;26359;48.750;9.314;2022-11-14T09:58:55;6.13;;;5.47;;
40675;SDS011;26359;48.750;9.314;2022-11-14T10:12:54;6.13;;;4.82;;
40675;SDS011;26359;48.750;9.314;2022-11-14T10:15:36;5.72;;;5.22;;
40675;SDS011;26359;48.750;9.314;2022-11-14T10:21:01;7.32;;;6.63;;
40675;SDS011;26359;48.750;9.314;2022-11-14T10:32:23;12.30;;;10.48;;
40675;SDS011;26359;48.750;9.314;2022-11-14T10:40:04;9.88;;;6.70;;
40675;SDS011;26359;48.750;9.314;2022-11-14T10:42:43;6.20;;;5.13;;
40675;SDS011;26359;48.750;9.314;2022-11-14T10:47:49;11.95;;;10.68;;
40675;SDS011;26359;48.750;9.314;2022-11-14T10:50:23;11.30;;;8.27;;
40675;SDS011;26359;48.750;9.314;2022-11-14T10:52:53;12.13;;;9.77;;
40675;SDS011;26359;48.750;9.314;2022-11-14T10:55:24;9.32;;;7.28;;
40675;SDS011;26359;48.750;9.314;2022-11-14T10:57:50;7.75;;;6.53;;
40675;SDS011;26359;48.750;9.314;2022-11-14T11:00:17;6.97;;;5.75;;
40675;SDS011;26359;48.750;9.314;2022-11-14T11:02:48;6.18;;;5.25;;
40675;SDS011;26359;48.750;9.314;2022-11-14T11:05:19;8.20;;;4.78;;
40675;SDS011;26359;48.750;9.314;2022-11-14T11:07:47;5.55;;;3.95;;
40675;SDS011;26359;48.750;9.314;2022-11-14T11:10:33;5.15;;;3.95;;
40675;SDS011;26359;48.750;9.314;2022-11-14T11:13:56;5.50;;;4.35;;
40675;SDS011;26359;48.750;9.314;2022-11-14T11:16:21;4.22;;;3.80;;
40675;SDS011;26359;48.750;9.314;2022-11-14T11:18:48;3.80;;;3.40;;
40675;SDS011;26359;48.750;9.314;2022-11-14T11:21:14;3.47;;;2.90;;
40675;SDS011;26359;48.750;9.314;2022-11-14T11:23:51;4.05;;;3.10;;
40675;SDS011;26359;48.750;9.314;2022-11-14T11:26:24;2.53;;;2.33;;
40675;SDS011;26359;48.750;9.314;2022-11-14T11:37:37;3.30;;;3.00;;
40675;SDS011;26359;48.750;9.314;2022-11-14T11:39:50;3.83;;;3.53;;
40675;SDS011;26359;48.750;9.314;2022-11-14T11:42:44;3.63;;;3.33;;
40675;SDS011;26359;48.750;9.314;2022-11-14T11:45:19;4.20;;;3.90;;
40675;SDS011;26359;48.750;9.314;2022-11-14T11:47:51;3.75;;;3.53;;
40675;SDS011;26359;48.750;9.314;2022-11-14T11:50:24;4.10;;;3.80;;
40675;SDS011;26359;48.750;9.314;2022-11-14T11:53:05;5.45;;;4.18;;
40675;SDS011;26359;48.750;9.314;2022-11-14T11:55:42;4.32;;;3.72;;
40675;SDS011;26359;48.750;9.314;2022-11-14T11:58:24;4.53;;;4.22;;
40675;SDS011;26359;48.750;9.314;2022-11-14T12:01:03;5.65;;;5.25;;
40675;SDS011;26359;48.750;9.314;2022-11-14T12:03:29;6.25;;;3.95;;
40675;SDS011;26359;48.750;9.314;2022-11-14T12:06:13;4.10;;;3.47;;
40675;SDS011;26359;48.750;9.314;2022-11-14T12:08:45;3.50;;;3.20;;
40675;SDS011;26359;48.750;9.314;2022-11-14T12:11:18;4.20;;;3.88;;
40675;SDS011;26359;48.750;9.314;2022-11-14T12:13:51;4.75;;;4.18;;
40675;SDS011;26359;48.750;9.314;2022-11-14T12:27:47;5.25;;;4.85;;
40675;SDS011;26359;48.750;9.314;2022-11-14T12:30:29;5.53;;;4.75;;
40675;SDS011;26359;48.750;9.314;2022-11-14T12:33:00;4.78;;;3.80;;
40675;SDS011;26359;48.750;9.314;2022-11-14T12:37:59;4.72;;;4.30;;
40675;SDS011;26359;48.750;9.314;2022-11-14T12:40:36;4.07;;;3.78;;
40675;SDS011;26359;48.750;9.314;2022-11-14T12:43:04;3.47;;;3.17;;
40675;SDS011;26359;48.750;9.314;2022-11-14T12:48:20;3.85;;;3.55;;
40675;SDS011;26359;48.750;9.314;2022-11-14T12:50:46;5.63;;;5.22;;
40675;SDS011;26359;48.750;9.314;2022-11-14T13:07:22;5.75;;;5.25;;
40675;SDS011;26359;48.750;9.314;2022-11-14T13:10:22;9.70;;;9.00;;
40675;SDS011;26359;48.750;9.314;2022-11-14T13:15:50;4.40;;;4.00;;
40675;SDS011;26359;48.750;9.314;2022-11-14T13:18:50;6.05;;;5.55;;
40675;SDS011;26359;48.750;9.314;2022-11-14T13:27:29;6.15;;;4.65;;
40675;SDS011;26359;48.750;9.314;2022-11-14T13:29:56;5.25;;;4.85;;
40675;SDS011;26359;48.750;9.314;2022-11-14T13:35:17;7.13;;;6.57;;
40675;SDS011;26359;48.750;9.314;2022-11-14T13:43:38;7.75;;;7.22;;
40675;SDS011;26359;48.750;9.314;2022-11-14T13:48:59;8.80;;;8.20;;
40675;SDS011;26359;48.750;9.314;2022-11-14T13:51:50;8.38;;;7.78;;
40675;SDS011;26359;48.750;9.314;2022-11-14T13:54:17;15.65;;;14.70;;
40675;SDS011;26359;48.750;9.314;2022-11-14T13:59:36;9.32;;;8.73;;
40675;SDS011;26359;48.750;9.314;2022-11-14T14:02:25;8.85;;;8.18;;
40675;SDS011;26359;48.750;9.314;2022-11-14T14:13:38;6.20;;;5.80;;
40675;SDS011;26359;48.750;9.314;2022-11-14T14:24:24;6.90;;;6.38;;
40675;SDS011;26359;48.750;9.314;2022-11-14T14:27:00;6.97;;;6.47;;
40675;SDS011;26359;48.750;9.314;2022-11-14T14:32:15;7.25;;;6.03;;
40675;SDS011;26359;48.750;9.314;2022-11-14T14:34:42;5.88;;;5.47;;
40675;SDS011;26359;48.750;9.314;2022-11-14T14:37:18;5.20;;;4.75;;
40675;SDS011;26359;48.750;9.314;2022-11-14T14:42:39;4.60;;;4.20;;
40675;SDS011;26359;48.750;9.314;2022-11-14T14:45:15;5.03;;;4.60;;
40675;SDS011;26359;48.750;9.314;2022-11-14T14:48:20;4.70;;;4.40;;
40675;SDS011;26359;48.750;9.314;2022-11-14T14:53:05;4.97;;;4.47;;
40675;SDS011;26359;48.750;9.314;2022-11-14T14:55:32;5.43;;;4.38;;
40675;SDS011;26359;48.750;9.314;2022-11-14T14:58:11;5.22;;;4.57;;
40675;SDS011;26359;48.750;9.314;2022-11-14T15:00:37;5.35;;;4.90;;
40675;SDS011;26359;48.750;9.314;2022-11-14T15:03:03;4.93;;;4.47;;
40675;SDS011;26359;48.750;9.314;2022-11-14T15:05:29;5.07;;;4.68;;
40675;SDS011;26359;48.750;9.314;2022-11-14T15:07:56;5.07;;;4.47;;
40675;SDS011;26359;48.750;9.314;2022-11-14T15:10:27;5.65;;;5.07;;
40675;SDS011;26359;48.750;9.314;2022-11-14T15:12:55;6.00;;;5.35;;
40675;SDS011;26359;48.750;9.314;2022-11-14T15:15:21;5.55;;;5.05;;
40675;SDS011;26359;48.750;9.314;2022-11-14T15:17:49;5.68;;;5.18;;
40675;SDS011;26359;48.750;9.314;2022-11-14T15:20:21;6.18;;;5.45;;
40675;SDS011;26359;48.750;9.314;2022-11-14T15:23:01;5.10;;;4.63;;
40675;SDS011;26359;48.750;9.314;2022-11-14T15:25:41;6.20;;;5.60;;
40675;SDS011;26359;48.750;9.314;2022-11-14T15:28:18;5.78;;;5.28;;
40675;SDS011;26359;48.750;9.314;2022-11-14T15:30:58;6.13;;;5.53;;
40675;SDS011;26359;48.750;9.314;2022-11-14T15:33:26;4.82;;;4.38;;
40675;SDS011;26359;48.750;9.314;2022-11-14T15:36:04;9.07;;;4.47;;
40675;SDS011;26359;48.750;9.314;2022-11-14T15:38:31;5.38;;;4.97;;
40675;SDS011;26359;48.750;9.314;2022-11-14T15:43:49;6.50;;;5.80;;
40675;SDS011;26359;48.750;9.314;2022-11-14T15:46:27;6.10;;;5.50;;
40675;SDS011;26359;48.750;9.314;2022-11-14T15:49:23;16.02;;;14.73;;
40675;SDS011;26359;48.750;9.314;2022-11-14T15:51:52;12.52;;;10.13;;
40675;SDS011;26359;48.750;9.314;2022-11-14T15:54:30;7.55;;;6.85;;
40675;SDS011;26359;48.750;9.314;2022-11-14T15:57:01;5.90;;;5.40;;
40675;SDS011;26359;48.750;9.314;2022-11-14T15:59:37;7.47;;;6.78;;
40675;SDS011;26359;48.750;9.314;2022-11-14T16:02:03;8.27;;;7.45;;
40675;SDS011;26359;48.750;9.314;2022-11-14T16:04:38;7.75;;;7.05;;
40675;SDS011;26359;48.750;9.314;2022-11-14T16:07:03;8.68;;;7.55;;
40675;SDS011;26359;48.750;9.314;2022-11-14T16:09:29;8.38;;;7.68;;
40675;SDS011;26359;48.750;9.314;2022-11-14T16:11:55;10.98;;;10.02;;
40675;SDS011;26359;48.750;9.314;2022-11-14T16:14:21;11.10;;;10.27;;
40675;SDS011;26359;48.750;9.314;2022-11-14T16:16:46;12.50;;;11.32;;
40675;SDS011;26359;48.750;9.314;2022-11-14T16:19:13;11.82;;;10.82;;
40675;SDS011;26359;48.750;9.314;2022-11-14T16:21:39;9.38;;;8.57;;
40675;SDS011;26359;48.750;9.314;2022-11-14T16:24:05;19.35;;;18.05;;
40675;SDS011;26359;48.750;9.314;2022-11-14T16:26:38;15.68;;;14.68;;
40675;SDS011;26359;48.750;9.314;2022-11-14T16:29:05;13.68;;;12.63;;
40675;SDS011;26359;48.750;9.314;2022-11-14T16:31:31;12.93;;;11.75;;
40675;SDS011;26359;48.750;9.314;2022-11-14T16:33:57;13.88;;;12.77;;
40675;SDS011;26359;48.750;9.314;2022-11-14T16:36:23;13.07;;;12.15;;
40675;SDS011;26359;48.750;9.314;2022-11-14T16:38:48;12.20;;;11.38;;
40675;SDS011;26359;48.750;9.314;2022-11-14T16:41:14;14.13;;;12.93;;
40675;SDS011;26359;48.750;9.314;2022-11-14T16:43:40;13.80;;;12.70;;
40675;SDS011;26359;48.750;9.314;2022-11-14T16:46:06;13.40;;;12.20;;
40675;SDS011;26359;48.750;9.314;2022-11-14T16:48:33;10.43;;;7.47;;